Time;durP1;ratioP1;P1;durP2;ratioP2;P2;SDS_P1;SDS_P2;PMS_P1;PMS_P2;Temp;Humidity;BMP_temperature;BMP_pressure;BME280_temperature;BME280_humidity;BME280_pressure;Samples;Min_cycle;Max_cycle;Signal;HPM_P1;HPM_P2
2024/03/22 00:02:19;;;;;;;;;64.50;52.25;;;;;;;;5048741;28;12250;-87
2024/03/22 00:04:45;;;;;;;;;66.00;52.00;;;;;;;;5031222;28;11489;-85
2024/03/22 00:07:14;;;;;;;;;58.50;46.75;;;;;;;;5048279;28;11517;-84
2024/03/22 00:09:40;;;;;;;;;67.50;53.75;;;;;;;;5051332;28;11538;-91
2024/03/22 00:12:11;;;;;;;;;61.00;50.75;;;;;;;;5052381;28;11485;-87
2024/03/22 00:14:37;;;;;;;;;70.00;53.50;;;;;;;;5051721;28;12363;-86
2024/03/22 00:17:05;;;;;;;;;60.50;49.75;;;;;;;;5052154;28;11585;-85
2024/03/22 00:19:31;;;;;;;;;59.50;49.00;;;;;;;;5052770;28;11526;-85
2024/03/22 00:21:58;;;;;;;;;64.25;52.50;;;;;;;;5052189;28;11509;-85
2024/03/22 00:24:26;;;;;;;;;60.75;50.00;;;;;;;;5053121;28;11630;-90
2024/03/22 00:26:53;;;;;;;;;61.75;49.75;;;;;;;;5052359;28;11422;-87
2024/03/22 00:29:19;;;;;;;;;62.75;50.75;;;;;;;;5051887;28;11333;-88
2024/03/22 00:31:47;;;;;;;;;57.00;45.50;;;;;;;;5051666;28;12132;-87
2024/03/22 00:34:13;;;;;;;;;61.75;48.00;;;;;;;;5041348;28;11238;-83
2024/03/22 00:36:40;;;;;;;;;60.25;49.50;;;;;;;;5051712;28;11165;-84
2024/03/22 00:39:07;;;;;;;;;60.00;48.00;;;;;;;;5041652;28;11237;-82
2024/03/22 00:41:36;;;;;;;;;59.00;46.75;;;;;;;;5052245;28;11249;-85
2024/03/22 00:44:02;;;;;;;;;59.50;48.75;;;;;;;;5056012;28;11080;-82
2024/03/22 00:46:32;;;;;;;;;67.00;52.25;;;;;;;;5071199;28;11115;-87
2024/03/22 00:48:59;;;;;;;;;50.25;42.75;;;;;;;;5058275;28;11455;-82
2024/03/22 00:51:27;;;;;;;;;63.75;51.00;;;;;;;;5059289;28;11080;-84
2024/03/22 00:53:53;;;;;;;;;58.25;47.25;;;;;;;;5058227;28;11243;-83
2024/03/22 00:56:21;;;;;;;;;57.00;47.75;;;;;;;;5057518;28;11233;-83
2024/03/22 00:58:48;;;;;;;;;57.50;46.00;;;;;;;;5058053;28;11050;-86
2024/03/22 01:01:16;;;;;;;;;57.75;47.25;;;;;;;;5057076;28;10990;-83
2024/03/22 01:03:42;;;;;;;;;53.00;44.25;;;;;;;;5057692;28;11034;-84
2024/03/22 01:06:09;;;;;;;;;56.25;46.75;;;;;;;;5056904;28;11757;-87
2024/03/22 01:08:36;;;;;;;;;56.75;46.75;;;;;;;;5052301;28;11022;-87
2024/03/22 01:11:03;;;;;;;;;58.75;48.00;;;;;;;;5048936;28;11138;-84
2024/03/22 01:13:29;;;;;;;;;56.25;47.25;;;;;;;;5050808;28;11043;-81
2024/03/22 01:15:58;;;;;;;;;57.25;47.75;;;;;;;;5051154;28;11061;-85
2024/03/22 01:18:24;;;;;;;;;61.25;49.00;;;;;;;;5051959;28;11917;-90
2024/03/22 01:20:51;;;;;;;;;56.50;45.75;;;;;;;;5048443;28;11128;-90
2024/03/22 01:23:18;;;;;;;;;59.25;47.25;;;;;;;;5050077;28;11851;-85
2024/03/22 01:25:46;;;;;;;;;58.25;47.50;;;;;;;;5049583;28;11313;-88
2024/03/22 01:28:12;;;;;;;;;60.25;47.25;;;;;;;;5050505;28;11847;-85
2024/03/22 01:30:40;;;;;;;;;56.75;47.50;;;;;;;;5048955;28;11084;-89
2024/03/22 01:33:07;;;;;;;;;59.25;49.00;;;;;;;;5051266;28;11155;-86
2024/03/22 01:35:35;;;;;;;;;58.75;47.25;;;;;;;;5052142;28;11266;-88
2024/03/22 01:38:01;;;;;;;;;54.25;45.25;;;;;;;;5054628;28;11139;-87
2024/03/22 01:40:28;;;;;;;;;60.25;49.50;;;;;;;;5052801;28;11143;-91
2024/03/22 01:42:56;;;;;;;;;57.25;47.00;;;;;;;;5052334;28;12057;-88
2024/03/22 01:45:24;;;;;;;;;55.25;44.75;;;;;;;;5050823;28;11080;-86
2024/03/22 01:47:51;;;;;;;;;49.75;42.25;;;;;;;;5049244;28;11019;-91
2024/03/22 01:50:20;;;;;;;;;59.25;49.00;;;;;;;;5053523;28;11002;-87
2024/03/22 01:52:46;;;;;;;;;56.50;46.75;;;;;;;;5049038;28;11941;-86
2024/03/22 01:55:14;;;;;;;;;57.25;46.50;;;;;;;;5049614;28;11155;-82
2024/03/22 01:57:40;;;;;;;;;59.25;47.00;;;;;;;;5049506;28;11100;-83
2024/03/22 02:00:09;;;;;;;;;57.75;47.00;;;;;;;;5009000;28;1121678;-88
2024/03/22 02:02:35;;;;;;;;;59.00;47.25;;;;;;;;5050591;28;8928;-84
2024/03/22 02:05:13;;;;;;;;;61.75;48.00;;;;;;;;5050970;28;11211;-86
2024/03/22 02:07:41;;;;;;;;;61.25;49.50;;;;;;;;5050657;28;11072;-88
2024/03/22 02:10:10;;;;;;;;;59.25;47.50;;;;;;;;5051075;28;11254;-89
2024/03/22 02:12:39;;;;;;;;;61.00;49.00;;;;;;;;5049946;28;11145;-84
2024/03/22 02:15:08;;;;;;;;;68.50;54.00;;;;;;;;5050231;28;11169;-88
2024/03/22 02:17:34;;;;;;;;;58.25;48.25;;;;;;;;5050085;28;11236;-84
2024/03/22 02:20:02;;;;;;;;;57.25;47.75;;;;;;;;5050172;28;11947;-83
2024/03/22 02:22:28;;;;;;;;;59.75;49.25;;;;;;;;5050593;28;10993;-88
2024/03/22 02:24:57;;;;;;;;;60.50;48.75;;;;;;;;5050537;28;12078;-83
2024/03/22 02:27:24;;;;;;;;;61.50;51.00;;;;;;;;5039565;28;11173;-85
2024/03/22 02:29:52;;;;;;;;;60.00;48.50;;;;;;;;5050475;28;11206;-84
2024/03/22 02:32:18;;;;;;;;;66.50;53.75;;;;;;;;5047054;28;11178;-85
2024/03/22 02:34:45;;;;;;;;;52.50;44.00;;;;;;;;5050430;28;11496;-88
2024/03/22 02:37:11;;;;;;;;;58.75;47.75;;;;;;;;5050913;28;11345;-84
2024/03/22 02:39:39;;;;;;;;;58.25;47.25;;;;;;;;5052018;28;11132;-84
2024/03/22 02:42:07;;;;;;;;;61.25;48.00;;;;;;;;5053351;28;11317;-82
2024/03/22 02:44:34;;;;;;;;;61.25;48.25;;;;;;;;5054357;28;11250;-82
2024/03/22 02:47:00;;;;;;;;;57.00;46.00;;;;;;;;5053031;28;11517;-82
2024/03/22 02:49:28;;;;;;;;;60.50;47.25;;;;;;;;5054305;28;11221;-84
2024/03/22 02:51:54;;;;;;;;;58.25;47.75;;;;;;;;5054176;28;11249;-81
2024/03/22 02:54:21;;;;;;;;;63.00;50.75;;;;;;;;5053890;28;11550;-81
2024/03/22 02:56:47;;;;;;;;;66.00;51.75;;;;;;;;5053173;28;11594;-87
2024/03/22 02:59:16;;;;;;;;;60.00;49.50;;;;;;;;5049966;28;11519;-92
2024/03/22 03:01:42;;;;;;;;;60.75;50.00;;;;;;;;5050154;28;11590;-87
2024/03/22 03:04:09;;;;;;;;;67.00;53.00;;;;;;;;5051087;28;11650;-85
2024/03/22 03:06:36;;;;;;;;;66.75;54.25;;;;;;;;5070947;28;11640;-85
2024/03/22 03:09:05;;;;;;;;;66.00;53.00;;;;;;;;5045481;28;11576;-87
2024/03/22 03:11:31;;;;;;;;;64.00;50.00;;;;;;;;5050569;28;11552;-84
2024/03/22 03:13:58;;;;;;;;;67.50;55.50;;;;;;;;5049232;28;12414;-89
2024/03/22 03:16:26;;;;;;;;;66.00;52.75;;;;;;;;5049319;28;12252;-90
2024/03/22 03:18:53;;;;;;;;;67.25;52.50;;;;;;;;5048996;28;11640;-89
2024/03/22 03:21:19;;;;;;;;;74.00;55.75;;;;;;;;5050282;28;11632;-89
2024/03/22 03:23:47;;;;;;;;;66.75;53.25;;;;;;;;5050397;28;11591;-86
2024/03/22 03:26:13;;;;;;;;;70.50;55.25;;;;;;;;5053162;28;12258;-89
2024/03/22 03:28:40;;;;;;;;;64.25;52.00;;;;;;;;5053008;28;11615;-91
2024/03/22 03:31:06;;;;;;;;;65.75;53.50;;;;;;;;5051767;28;11500;-91
2024/03/22 03:33:35;;;;;;;;;69.50;55.00;;;;;;;;5050392;28;11602;-90
2024/03/22 03:36:05;;;;;;;;;60.25;50.25;;;;;;;;5049822;28;11531;-82
2024/03/22 03:38:37;;;;;;;;;70.25;54.50;;;;;;;;5052938;28;11526;-87
2024/03/22 03:41:03;;;;;;;;;66.50;52.75;;;;;;;;5049960;28;11591;-85
2024/03/22 03:43:31;;;;;;;;;67.25;55.25;;;;;;;;5049512;28;11562;-89
2024/03/22 03:45:57;;;;;;;;;68.50;54.00;;;;;;;;5050132;28;11633;-87
2024/03/22 03:48:24;;;;;;;;;66.50;54.00;;;;;;;;5048083;28;11584;-90
2024/03/22 03:50:59;;;;;;;;;69.25;54.25;;;;;;;;5049907;28;11661;-84
2024/03/22 03:53:26;;;;;;;;;66.25;54.25;;;;;;;;5048926;28;12289;-84
2024/03/22 03:55:52;;;;;;;;;64.50;51.50;;;;;;;;5048759;28;11637;-87
2024/03/22 03:58:19;;;;;;;;;74.50;54.75;;;;;;;;5048074;28;11513;-83
2024/03/22 04:00:45;;;;;;;;;65.75;53.00;;;;;;;;5031423;28;11481;-86
2024/03/22 04:03:13;;;;;;;;;67.75;52.50;;;;;;;;5048598;28;11535;-82
2024/03/22 04:05:39;;;;;;;;;69.50;55.25;;;;;;;;5048814;28;11632;-84
2024/03/22 04:08:08;;;;;;;;;68.00;53.25;;;;;;;;5048863;28;11484;-85
2024/03/22 04:10:34;;;;;;;;;62.25;50.25;;;;;;;;5048870;28;11528;-84
2024/03/22 04:13:01;;;;;;;;;63.25;50.75;;;;;;;;5048879;28;11500;-87
2024/03/22 04:15:28;;;;;;;;;63.00;51.50;;;;;;;;5049061;28;11531;-82
2024/03/22 04:17:57;;;;;;;;;68.00;54.00;;;;;;;;5048712;28;12286;-83
2024/03/22 04:20:23;;;;;;;;;61.75;49.75;;;;;;;;5048513;28;11520;-86
2024/03/22 04:22:52;;;;;;;;;63.75;52.50;;;;;;;;5048483;28;11594;-84
2024/03/22 04:25:19;;;;;;;;;64.25;51.00;;;;;;;;5048560;28;11528;-82
2024/03/22 04:27:46;;;;;;;;;61.25;50.25;;;;;;;;5049892;28;11477;-81
2024/03/22 04:30:13;;;;;;;;;61.25;50.50;;;;;;;;5050638;28;11551;-84
2024/03/22 04:32:40;;;;;;;;;60.50;50.50;;;;;;;;5052217;28;11528;-88
2024/03/22 04:35:07;;;;;;;;;62.50;50.25;;;;;;;;5052532;28;11542;-86
2024/03/22 04:37:34;;;;;;;;;61.50;48.25;;;;;;;;5053431;28;11232;-81
2024/03/22 04:40:04;;;;;;;;;66.75;52.50;;;;;;;;5053659;28;11309;-81
2024/03/22 04:42:36;;;;;;;;;72.25;55.75;;;;;;;;5054065;28;11513;-83
2024/03/22 04:45:09;;;;;;;;;65.50;54.00;;;;;;;;5052444;28;11503;-83
2024/03/22 04:47:37;;;;;;;;;67.75;54.00;;;;;;;;5049421;28;11509;-84
2024/03/22 04:50:09;;;;;;;;;62.00;50.00;;;;;;;;5047954;28;11505;-88
2024/03/22 04:52:36;;;;;;;;;62.25;49.00;;;;;;;;5048613;28;11611;-89
2024/03/22 04:55:07;;;;;;;;;61.25;51.50;;;;;;;;5048562;28;11530;-82
2024/03/22 04:57:37;;;;;;;;;63.50;51.75;;;;;;;;5052849;28;11529;-83
2024/03/22 05:00:07;;;;;;;;;67.25;54.75;;;;;;;;5037503;28;11527;-82
2024/03/22 05:02:33;;;;;;;;;72.00;55.50;;;;;;;;5052942;28;11477;-83
2024/03/22 05:05:02;;;;;;;;;70.25;54.00;;;;;;;;5058904;28;11508;-81
2024/03/22 05:07:31;;;;;;;;;64.50;51.25;;;;;;;;5054204;28;11487;-86
2024/03/22 05:10:01;;;;;;;;;68.00;55.75;;;;;;;;5051371;28;12265;-84
2024/03/22 05:12:27;;;;;;;;;66.75;55.00;;;;;;;;5051059;28;11514;-82
2024/03/22 05:14:56;;;;;;;;;65.75;53.25;;;;;;;;5052366;28;12334;-83
2024/03/22 05:17:22;;;;;;;;;64.00;52.75;;;;;;;;5053822;28;11572;-85
2024/03/22 05:19:50;;;;;;;;;64.50;51.25;;;;;;;;5055637;28;12494;-90
2024/03/22 05:22:22;;;;;;;;;67.50;53.75;;;;;;;;5054949;28;11559;-92
2024/03/22 05:24:50;;;;;;;;;65.00;53.25;;;;;;;;5046086;28;11502;-90
2024/03/22 05:27:18;;;;;;;;;64.25;52.00;;;;;;;;5052702;28;11487;-93
2024/03/22 05:29:44;;;;;;;;;52.50;44.75;;;;;;;;5053291;28;11517;-88
2024/03/22 05:32:14;;;;;;;;;67.25;54.25;;;;;;;;5050829;28;11507;-89
2024/03/22 05:34:41;;;;;;;;;67.00;50.50;;;;;;;;5028323;28;11523;-84
2024/03/22 05:37:08;;;;;;;;;67.75;52.75;;;;;;;;5055361;28;11603;-85
2024/03/22 05:39:35;;;;;;;;;68.00;55.50;;;;;;;;5063891;28;11513;-80
2024/03/22 05:42:02;;;;;;;;;70.25;55.25;;;;;;;;5055373;28;11591;-84
2024/03/22 05:44:28;;;;;;;;;63.00;49.75;;;;;;;;5051522;28;11528;-85
2024/03/22 05:46:56;;;;;;;;;61.00;49.25;;;;;;;;5048298;28;11513;-81
2024/03/22 05:49:24;;;;;;;;;63.50;52.00;;;;;;;;5050434;28;11575;-84
2024/03/22 05:51:51;;;;;;;;;65.75;53.00;;;;;;;;5033526;28;11666;-83
2024/03/22 05:54:17;;;;;;;;;67.50;52.50;;;;;;;;5049847;28;11530;-81
2024/03/22 05:56:44;;;;;;;;;64.75;52.50;;;;;;;;5050130;28;11650;-86
2024/03/22 05:59:11;;;;;;;;;67.50;55.25;;;;;;;;5050716;28;11607;-85
2024/03/22 06:01:40;;;;;;;;;67.00;52.75;;;;;;;;5051867;28;12239;-84
2024/03/22 06:04:06;;;;;;;;;66.50;52.50;;;;;;;;5050488;28;11528;-81
2024/03/22 06:06:36;;;;;;;;;60.50;50.25;;;;;;;;5048167;28;12499;-82
2024/03/22 06:09:03;;;;;;;;;65.00;51.25;;;;;;;;5053827;28;11555;-83
2024/03/22 06:11:31;;;;;;;;;61.75;51.75;;;;;;;;5052795;28;11502;-79
2024/03/22 06:13:57;;;;;;;;;61.00;49.00;;;;;;;;5049884;28;11633;-80
2024/03/22 06:16:24;;;;;;;;;56.75;46.50;;;;;;;;5050769;28;11560;-82
2024/03/22 06:18:53;;;;;;;;;57.00;47.75;;;;;;;;5054268;28;11622;-79
2024/03/22 06:21:21;;;;;;;;;52.25;44.25;;;;;;;;5056655;28;11504;-82
2024/03/22 06:23:50;;;;;;;;;59.25;48.50;;;;;;;;5057215;28;11515;-79
2024/03/22 06:26:17;;;;;;;;;59.25;48.50;;;;;;;;5054896;28;11294;-79
2024/03/22 06:28:44;;;;;;;;;48.75;39.25;;;;;;;;5052065;28;11721;-81
2024/03/22 06:31:14;;;;;;;;;62.25;48.00;;;;;;;;5053933;28;11360;-80
2024/03/22 06:33:40;;;;;;;;;65.50;51.25;;;;;;;;5054480;28;11555;-80
2024/03/22 06:36:08;;;;;;;;;60.25;47.75;;;;;;;;5050668;28;12348;-78
2024/03/22 06:38:35;;;;;;;;;70.25;54.25;;;;;;;;5050562;28;11671;-78
2024/03/22 06:41:03;;;;;;;;;66.50;54.25;;;;;;;;5049634;28;11569;-77
2024/03/22 06:43:31;;;;;;;;;65.25;51.75;;;;;;;;5049639;28;11486;-77
2024/03/22 06:45:59;;;;;;;;;67.50;53.25;;;;;;;;5050022;28;11561;-79
2024/03/22 06:48:25;;;;;;;;;65.00;52.75;;;;;;;;5048392;28;12379;-80
2024/03/22 06:50:52;;;;;;;;;69.75;54.00;;;;;;;;5048793;28;11483;-79
2024/03/22 06:53:21;;;;;;;;;69.25;54.75;;;;;;;;5048390;28;11591;-79
2024/03/22 06:55:48;;;;;;;;;71.50;56.25;;;;;;;;5048620;28;11572;-78
2024/03/22 06:58:16;;;;;;;;;66.25;50.50;;;;;;;;5048308;28;12251;-81
2024/03/22 07:00:43;;;;;;;;;67.00;53.50;;;;;;;;5049109;28;11486;-78
2024/03/22 07:03:09;;;;;;;;;61.75;50.00;;;;;;;;5049961;28;11516;-80
2024/03/22 07:05:36;;;;;;;;;61.25;50.25;;;;;;;;5052246;28;12312;-79
2024/03/22 07:08:03;;;;;;;;;59.50;49.00;;;;;;;;5051899;28;11560;-80
2024/03/22 07:10:32;;;;;;;;;66.50;52.75;;;;;;;;5050529;28;11578;-78
2024/03/22 07:12:58;;;;;;;;;64.50;50.50;;;;;;;;5048869;28;11272;-77
2024/03/22 07:15:32;;;;;;;;;66.25;53.00;;;;;;;;5048553;28;11598;-77
2024/03/22 07:17:58;;;;;;;;;65.00;53.00;;;;;;;;5047740;28;11492;-78
2024/03/22 07:20:26;;;;;;;;;66.25;53.25;;;;;;;;5048494;28;11676;-82
2024/03/22 07:22:53;;;;;;;;;63.50;49.75;;;;;;;;5048716;28;11545;-79
2024/03/22 07:25:23;;;;;;;;;65.00;52.25;;;;;;;;5047802;28;11861;-79
2024/03/22 07:27:54;;;;;;;;;61.25;50.25;;;;;;;;5048477;28;11487;-80
2024/03/22 07:30:35;;;;;;;;;65.00;50.25;;;;;;;;5047012;28;11583;-81
2024/03/22 07:33:02;;;;;;;;;60.75;48.25;;;;;;;;5049451;28;11535;-80
2024/03/22 07:35:32;;;;;;;;;65.25;51.25;;;;;;;;5048713;28;11519;-80
2024/03/22 07:38:01;;;;;;;;;64.00;50.50;;;;;;;;5048501;28;11549;-79
2024/03/22 07:40:31;;;;;;;;;56.50;48.00;;;;;;;;5047746;28;11522;-78
2024/03/22 07:42:59;;;;;;;;;62.00;49.75;;;;;;;;5048118;28;11562;-78
2024/03/22 07:45:30;;;;;;;;;60.00;50.50;;;;;;;;5048008;28;11558;-78
2024/03/22 07:47:56;;;;;;;;;63.50;50.75;;;;;;;;5048251;28;11504;-77
2024/03/22 07:50:23;;;;;;;;;60.00;48.00;;;;;;;;5048411;28;11690;-76
2024/03/22 07:52:50;;;;;;;;;60.00;51.00;;;;;;;;5048619;28;11972;-79
2024/03/22 07:55:17;;;;;;;;;61.75;49.00;;;;;;;;5047551;28;11339;-80
2024/03/22 07:57:43;;;;;;;;;63.75;49.50;;;;;;;;5047569;28;11322;-79
2024/03/22 08:00:12;;;;;;;;;58.75;43.75;;;;;;;;5047848;28;11334;-80
2024/03/22 08:02:39;;;;;;;;;58.50;46.50;;;;;;;;5050123;28;11158;-78
2024/03/22 08:05:08;;;;;;;;;59.00;48.00;;;;;;;;5052787;28;11166;-82
2024/03/22 08:07:34;;;;;;;;;54.25;46.00;;;;;;;;5054667;28;11169;-79
2024/03/22 08:10:04;;;;;;;;;59.25;48.00;;;;;;;;5059627;28;11039;-79
2024/03/22 08:12:30;;;;;;;;;54.75;41.50;;;;;;;;5060031;28;11123;-80
2024/03/22 08:14:57;;;;;;;;;52.25;43.75;;;;;;;;5055000;28;10942;-80
2024/03/22 08:17:24;;;;;;;;;55.25;43.75;;;;;;;;5059658;28;10828;-80
2024/03/22 08:19:53;;;;;;;;;51.25;41.75;;;;;;;;5054406;28;10876;-82
2024/03/22 08:22:19;;;;;;;;;44.50;38.25;;;;;;;;5057982;28;10967;-77
2024/03/22 08:24:46;;;;;;;;;54.00;45.25;;;;;;;;5051979;28;10603;-80
2024/03/22 08:27:14;;;;;;;;;49.75;39.25;;;;;;;;5051323;28;11129;-78
2024/03/22 08:29:41;;;;;;;;;49.25;42.00;;;;;;;;5053914;28;11587;-78
2024/03/22 08:32:08;;;;;;;;;51.75;42.75;;;;;;;;5052634;28;10781;-79
2024/03/22 08:34:35;;;;;;;;;56.50;43.25;;;;;;;;5052698;28;10739;-80
2024/03/22 08:37:03;;;;;;;;;54.00;44.50;;;;;;;;5051207;28;10866;-79
2024/03/22 08:39:31;;;;;;;;;52.75;42.75;;;;;;;;5051066;28;10758;-81
2024/03/22 08:41:57;;;;;;;;;59.00;45.50;;;;;;;;5050975;28;10777;-79
2024/03/22 08:44:24;;;;;;;;;55.75;45.50;;;;;;;;5051015;28;10710;-78
2024/03/22 08:46:51;;;;;;;;;54.25;43.50;;;;;;;;5051537;28;10748;-78
2024/03/22 08:49:19;;;;;;;;;53.75;44.50;;;;;;;;5052049;28;10731;-79
2024/03/22 08:51:46;;;;;;;;;54.25;44.00;;;;;;;;5052337;28;10710;-79
2024/03/22 08:54:14;;;;;;;;;51.75;40.75;;;;;;;;5052635;28;10738;-79
2024/03/22 08:56:41;;;;;;;;;53.00;41.25;;;;;;;;5053334;28;10410;-78
2024/03/22 08:59:08;;;;;;;;;50.75;42.25;;;;;;;;5052331;28;10613;-78
2024/03/22 09:01:36;;;;;;;;;43.00;35.75;;;;;;;;5050921;28;11238;-79
2024/03/22 09:04:04;;;;;;;;;53.50;42.25;;;;;;;;5051448;28;10428;-79
2024/03/22 09:06:30;;;;;;;;;48.25;37.50;;;;;;;;5051428;28;10434;-80
2024/03/22 09:08:58;;;;;;;;;47.75;40.75;;;;;;;;5051201;28;11009;-77
2024/03/22 09:11:25;;;;;;;;;57.00;44.75;;;;;;;;5050895;28;10506;-82
2024/03/22 09:13:53;;;;;;;;;52.50;43.00;;;;;;;;5050261;28;10760;-78
2024/03/22 09:16:20;;;;;;;;;45.75;39.75;;;;;;;;5050898;28;10558;-79
2024/03/22 09:18:47;;;;;;;;;52.25;42.75;;;;;;;;5050649;28;10299;-81
2024/03/22 09:21:13;;;;;;;;;49.25;41.50;;;;;;;;5038360;28;10418;-79
2024/03/22 09:23:41;;;;;;;;;53.50;42.50;;;;;;;;5050401;28;10581;-78
2024/03/22 09:26:07;;;;;;;;;50.75;40.75;;;;;;;;5050148;28;10570;-78
2024/03/22 09:28:36;;;;;;;;;49.50;41.00;;;;;;;;5050129;28;10249;-80
2024/03/22 09:31:06;;;;;;;;;49.25;40.75;;;;;;;;5049405;28;10312;-79
2024/03/22 09:33:34;;;;;;;;;48.50;39.50;;;;;;;;5050249;28;10124;-78
2024/03/22 09:36:00;;;;;;;;;51.75;42.50;;;;;;;;5050314;28;9898;-79
2024/03/22 09:38:28;;;;;;;;;48.25;39.25;;;;;;;;5049967;28;10052;-80
2024/03/22 09:40:54;;;;;;;;;42.25;36.50;;;;;;;;5049798;28;9953;-80
2024/03/22 09:43:22;;;;;;;;;50.50;41.25;;;;;;;;5049375;28;10038;-81
2024/03/22 09:45:50;;;;;;;;;50.00;41.50;;;;;;;;5050358;28;10141;-83
2024/03/22 09:48:19;;;;;;;;;48.75;41.25;;;;;;;;5049510;28;10312;-78
2024/03/22 09:50:47;;;;;;;;;35.75;34.00;;;;;;;;5016527;28;10122;-81
2024/03/22 09:53:15;;;;;;;;;47.75;37.25;;;;;;;;5051548;28;9991;-81
2024/03/22 09:55:43;;;;;;;;;41.25;36.75;;;;;;;;5052865;28;9875;-79
2024/03/22 09:58:11;;;;;;;;;35.75;26.75;;;;;;;;5053370;28;9910;-81
2024/03/22 10:00:40;;;;;;;;;37.25;31.25;;;;;;;;5055061;28;9660;-79
2024/03/22 10:03:12;;;;;;;;;41.25;33.00;;;;;;;;5054900;28;9569;-80
2024/03/22 10:05:38;;;;;;;;;40.25;36.50;;;;;;;;5055419;28;9576;-80
2024/03/22 10:08:06;;;;;;;;;38.00;32.25;;;;;;;;5053947;28;9635;-80
2024/03/22 10:10:33;;;;;;;;;35.67;31.33;;;;;;;;5054724;28;9393;-81
2024/03/22 10:13:04;;;;;;;;;26.67;26.33;;;;;;;;5050487;28;9255;-78
2024/03/22 10:15:31;;;;;;;;;28.75;28.75;;;;;;;;5049342;28;9762;-78
2024/03/22 10:17:58;;;;;;;;;34.75;31.25;;;;;;;;5049198;28;8923;-79
2024/03/22 10:20:26;;;;;;;;;33.00;29.33;;;;;;;;5049061;28;8862;-79
2024/03/22 10:22:57;;;;;;;;;31.67;30.33;;;;;;;;5037505;28;9794;-78
2024/03/22 10:25:24;;;;;;;;;31.67;30.67;;;;;;;;5049908;28;9085;-77
2024/03/22 10:27:51;;;;;;;;;30.00;29.33;;;;;;;;5049398;28;9358;-78
2024/03/22 10:30:17;;;;;;;;;31.25;28.50;;;;;;;;5048767;28;9042;-79
2024/03/22 10:32:45;;;;;;;;;32.67;30.33;;;;;;;;5049661;28;8895;-77
2024/03/22 10:35:13;;;;;;;;;34.33;29.00;;;;;;;;5048642;28;9077;-78
2024/03/22 10:37:42;;;;;;;;;36.00;30.67;;;;;;;;5050821;28;9308;-76
2024/03/22 10:40:11;;;;;;;;;34.67;30.00;;;;;;;;5059354;28;9308;-78
2024/03/22 10:42:39;;;;;;;;;28.50;25.25;;;;;;;;5056368;28;9008;-78
2024/03/22 10:45:07;;;;;;;;;35.50;32.75;;;;;;;;5052992;28;8846;-79
2024/03/22 10:47:35;;;;;;;;;36.50;32.75;;;;;;;;5050843;28;8842;-78
2024/03/22 10:50:05;;;;;;;;;22.75;22.75;;;;;;;;5048801;28;8858;-79
2024/03/22 10:52:35;;;;;;;;;33.50;30.00;;;;;;;;5048215;28;8992;-77
2024/03/22 10:55:05;;;;;;;;;30.50;28.75;;;;;;;;5048627;28;8966;-78
2024/03/22 10:57:36;;;;;;;;;24.75;23.75;;;;;;;;5048352;28;8861;-79
2024/03/22 11:00:09;;;;;;;;;26.75;26.75;;;;;;;;5048120;28;8864;-82
2024/03/22 11:02:37;;;;;;;;;29.75;29.75;;;;;;;;5049174;28;8823;-78
2024/03/22 11:05:04;;;;;;;;;28.75;28.00;;;;;;;;5048457;28;8851;-78
2024/03/22 11:07:32;;;;;;;;;24.50;24.25;;;;;;;;5047982;28;9606;-81
2024/03/22 11:10:03;;;;;;;;;33.00;30.25;;;;;;;;5048961;28;9244;-78
2024/03/22 11:12:33;;;;;;;;;23.75;20.75;;;;;;;;5048806;28;8987;-78
2024/03/22 11:14:59;;;;;;;;;29.50;29.50;;;;;;;;5048597;28;8854;-78
2024/03/22 11:17:27;;;;;;;;;34.25;30.75;;;;;;;;5048290;28;8892;-81
2024/03/22 11:19:53;;;;;;;;;33.00;31.25;;;;;;;;5048670;28;8846;-80
2024/03/22 11:22:20;;;;;;;;;35.75;30.50;;;;;;;;5048621;28;9015;-82
2024/03/22 11:24:46;;;;;;;;;33.75;31.25;;;;;;;;5048994;28;8958;-79
2024/03/22 11:27:15;;;;;;;;;35.25;31.50;;;;;;;;5048063;28;8868;-78
2024/03/22 11:29:43;;;;;;;;;37.00;31.25;;;;;;;;5048601;28;8855;-81
2024/03/22 11:32:10;;;;;;;;;32.50;28.25;;;;;;;;5047621;28;8811;-80
2024/03/22 11:34:41;;;;;;;;;33.50;30.00;;;;;;;;5049243;28;8866;-79
2024/03/22 11:37:11;;;;;;;;;30.50;29.00;;;;;;;;5049143;28;9644;-82
2024/03/22 11:39:37;;;;;;;;;28.50;28.00;;;;;;;;5049411;28;8889;-79
2024/03/22 11:42:07;;;;;;;;;29.75;29.75;;;;;;;;5050440;28;8839;-82
2024/03/22 11:44:36;;;;;;;;;31.75;29.00;;;;;;;;5054249;28;8846;-82
2024/03/22 11:47:04;;;;;;;;;30.00;28.75;;;;;;;;5058192;28;8847;-81
2024/03/22 11:49:30;;;;;;;;;27.50;25.75;;;;;;;;5056743;28;8850;-77
2024/03/22 11:51:57;;;;;;;;;30.25;28.25;;;;;;;;5055894;28;8866;-79
2024/03/22 11:54:24;;;;;;;;;33.50;29.25;;;;;;;;5042815;28;8864;-80
2024/03/22 11:56:53;;;;;;;;;32.25;31.25;;;;;;;;5054502;28;9672;-79
2024/03/22 11:59:20;;;;;;;;;27.00;27.00;;;;;;;;5052595;28;9362;-77
2024/03/22 12:01:48;;;;;;;;;26.50;24.25;;;;;;;;5050113;28;9529;-78
2024/03/22 12:04:18;;;;;;;;;25.75;25.75;;;;;;;;5050396;28;8885;-78
2024/03/22 12:06:46;;;;;;;;;30.00;27.00;;;;;;;;5053756;28;8870;-77
2024/03/22 12:09:13;;;;;;;;;22.25;22.25;;;;;;;;5054152;28;8882;-77
2024/03/22 12:11:41;;;;;;;;;28.75;27.00;;;;;;;;5054092;28;8858;-76
2024/03/22 12:14:08;;;;;;;;;28.00;27.25;;;;;;;;5052036;28;9670;-78
2024/03/22 12:16:36;;;;;;;;;30.75;26.25;;;;;;;;5051826;28;8851;-79
2024/03/22 12:19:03;;;;;;;;;25.75;24.00;;;;;;;;5050928;28;8866;-78
2024/03/22 12:21:31;;;;;;;;;32.25;28.50;;;;;;;;5051563;28;8996;-80
2024/03/22 12:23:59;;;;;;;;;28.50;23.75;;;;;;;;5051743;28;8830;-79
2024/03/22 12:26:26;;;;;;;;;26.50;25.50;;;;;;;;5052021;28;8849;-78
2024/03/22 12:28:53;;;;;;;;;24.25;22.25;;;;;;;;5051354;28;8868;-81
2024/03/22 12:31:20;;;;;;;;;26.75;26.75;;;;;;;;5050788;28;8835;-76
2024/03/22 12:33:46;;;;;;;;;21.75;21.75;;;;;;;;5052276;28;8862;-78
2024/03/22 12:36:15;;;;;;;;;23.25;23.25;;;;;;;;5054204;28;8845;-79
2024/03/22 12:38:41;;;;;;;;;26.50;23.50;;;;;;;;5051588;28;8850;-78
2024/03/22 12:41:08;;;;;;;;;33.25;27.75;;;;;;;;5052068;28;8834;-79
2024/03/22 12:43:35;;;;;;;;;23.25;20.75;;;;;;;;5051406;28;8871;-81
2024/03/22 12:46:04;;;;;;;;;23.20;20.60;;;;;;;;5051008;28;8843;-79
2024/03/22 12:48:31;;;;;;;;;19.80;18.80;;;;;;;;5050940;28;8858;-80
2024/03/22 12:51:00;;;;;;;;;25.25;23.50;;;;;;;;5051344;28;8847;-77
2024/03/22 12:53:32;;;;;;;;;22.25;22.25;;;;;;;;5050827;28;8870;-79
2024/03/22 12:56:02;;;;;;;;;21.25;20.00;;;;;;;;5051471;28;8872;-80
2024/03/22 12:58:31;;;;;;;;;25.20;22.20;;;;;;;;5051490;28;8965;-81
2024/03/22 13:00:57;;;;;;;;;23.40;22.00;;;;;;;;5051362;28;8789;-75
2024/03/22 13:03:25;;;;;;;;;18.80;17.40;;;;;;;;5060391;28;8881;-75
2024/03/22 13:05:51;;;;;;;;;20.60;20.60;;;;;;;;5053895;28;8977;-78
2024/03/22 13:08:19;;;;;;;;;20.00;18.60;;;;;;;;5051086;28;8857;-78
2024/03/22 13:10:47;;;;;;;;;17.00;17.00;;;;;;;;5050516;28;8869;-78
2024/03/22 13:13:16;;;;;;;;;20.40;18.40;;;;;;;;5050923;28;8867;-78
2024/03/22 13:15:42;;;;;;;;;19.00;19.00;;;;;;;;5049847;28;8847;-78
2024/03/22 13:18:10;;;;;;;;;18.00;18.00;;;;;;;;5051472;28;8846;-80
2024/03/22 13:20:36;;;;;;;;;21.60;20.60;;;;;;;;5050878;28;8886;-80
2024/03/22 13:23:04;;;;;;;;;20.20;19.20;;;;;;;;5051110;28;8976;-77
2024/03/22 13:25:30;;;;;;;;;23.20;20.80;;;;;;;;5051175;28;8886;-79
2024/03/22 13:28:02;;;;;;;;;18.40;18.40;;;;;;;;5051954;28;8849;-81
2024/03/22 13:30:29;;;;;;;;;23.00;23.00;;;;;;;;5053631;28;8790;-79
2024/03/22 13:32:56;;;;;;;;;24.60;23.60;;;;;;;;5058571;28;8884;-79
2024/03/22 13:35:22;;;;;;;;;19.40;19.40;;;;;;;;5057014;28;8866;-80
2024/03/22 13:37:50;;;;;;;;;18.00;16.60;;;;;;;;5058392;28;8941;-77
2024/03/22 13:40:16;;;;;;;;;21.20;20.20;;;;;;;;5058800;28;8861;-78
2024/03/22 13:42:44;;;;;;;;;17.40;17.40;;;;;;;;5059302;28;8857;-79
2024/03/22 13:45:12;;;;;;;;;19.60;19.60;;;;;;;;5058224;28;8958;-79
2024/03/22 13:47:40;;;;;;;;;22.20;19.00;;;;;;;;5058339;28;8916;-80
2024/03/22 13:50:09;;;;;;;;;19.60;19.60;;;;;;;;5053379;28;9617;-77
2024/03/22 13:52:35;;;;;;;;;26.00;24.60;;;;;;;;5052501;28;8897;-78
2024/03/22 13:55:02;;;;;;;;;22.80;22.80;;;;;;;;5053006;28;8854;-80
2024/03/22 13:57:29;;;;;;;;;23.60;21.60;;;;;;;;5051709;28;8847;-79
2024/03/22 13:59:56;;;;;;;;;17.60;17.60;;;;;;;;5048379;28;8833;-77
2024/03/22 14:02:23;;;;;;;;;23.60;21.00;;;;;;;;5048597;28;8795;-78
2024/03/22 14:04:51;;;;;;;;;25.80;23.20;;;;;;;;5048959;28;8882;-79
2024/03/22 14:07:18;;;;;;;;;19.20;17.60;;;;;;;;5049623;28;8855;-78
2024/03/22 14:09:45;;;;;;;;;25.80;22.60;;;;;;;;5048728;28;8870;-78
2024/03/22 14:12:13;;;;;;;;;22.00;18.40;;;;;;;;5049834;28;8886;-79
2024/03/22 14:14:42;;;;;;;;;22.20;22.00;;;;;;;;5050173;28;8854;-82
2024/03/22 14:17:08;;;;;;;;;18.80;18.00;;;;;;;;5051207;28;8870;-77
2024/03/22 14:19:37;;;;;;;;;22.20;22.20;;;;;;;;5052863;28;8997;-81
2024/03/22 14:22:03;;;;;;;;;22.00;21.20;;;;;;;;5052838;28;8847;-77
2024/03/22 14:24:30;;;;;;;;;24.60;24.00;;;;;;;;5050042;28;9625;-78